Ontario International Airport
KONT : now visible

Airfield :











YOU CAN JOIN US ON...

 
LOGIN :

Register | Disclaimer

   EN    FR    IT 

 









Legend :    VFR   Marginal VFR   IFR   Intensive IFR   Very Intensive IFR
Visi :
Ceiling :
>= 8 km
>= 3000ft
5 to 8 km
1000 to 3000 ft
1500m to 5 km
500 to 1000 ft
800 to 1500m
200 to 500 ft
< 800m
< 200 ft
Symbols :   Thunderstorms  Fog  Heavy snow  Heavy precipitations  Wind > 20 kt






- Airport Elevation : 944 ft
- IATA code : ONT


KONT - Ontario International

CURRENT METAR :
  • 282253Z 23005KT 9SM FEW160 SCT250 23/02 A3006 RMK AO2 SLP173 ACC N AND SE HAZY T02330017

EXPIRED METARs :
  • 282153Z 23007KT 10SM FEW200 SCT250 23/02 A3008 RMK AO2 SLP180 T02330017
  • 282053Z 24004KT 10SM BKN250 22/00 A3011 RMK AO2 SLP190 T02220000 58027

TAF KONT
Valid from the 28 at 18:00 until the 30 at 00:00 UTC


281739Z 2818/2924 VRB04KT P6SM FEW250
FM282200 26008KT P6SM SCT250
FM290200 VRB05KT P6SM SCT250
FM291500 04010KT P6SM SCT250
FM291800 03020G30KT P6SM FEW250



MET'MAP, your aeronautical weather chart ! - Copyright ORBIFLY December 2007 - Disclaimer

ORBIFLY MET'MAP TEAM :

Programming & Development : Alexandra Zaïnal
Concept & original design : Baudouin d'Aumeries
Assistance for programming : Marc-Olivier Méhu
Technical & hardware support : Manuel Goepfert

Contact : metmap@orbifly.com




SOURCES & CREDITS :

   NOAA       Earth
Advisory